sensor_id;sensor_type;location;lat;lon;timestamp;temperature;humidity
16643;DHT22;8435;52.184;5.406;2023-03-01T00:00:53;3.00;94.90
16643;DHT22;8435;52.184;5.406;2023-03-01T00:03:21;3.00;94.90
16643;DHT22;8435;52.184;5.406;2023-03-01T00:05:49;3.00;95.00
16643;DHT22;8435;52.184;5.406;2023-03-01T00:08:18;2.90;95.00
16643;DHT22;8435;52.184;5.406;2023-03-01T00:10:45;2.90;95.10
16643;DHT22;8435;52.184;5.406;2023-03-01T00:13:12;2.90;95.20
16643;DHT22;8435;52.184;5.406;2023-03-01T00:15:39;2.90;95.20
16643;DHT22;8435;52.184;5.406;2023-03-01T00:18:07;2.90;95.30
16643;DHT22;8435;52.184;5.406;2023-03-01T00:20:35;2.80;95.40
16643;DHT22;8435;52.184;5.406;2023-03-01T00:23:02;2.80;95.50
16643;DHT22;8435;52.184;5.406;2023-03-01T00:25:28;2.80;95.60
16643;DHT22;8435;52.184;5.406;2023-03-01T00:27:55;2.80;95.90
16643;DHT22;8435;52.184;5.406;2023-03-01T00:30:22;2.80;95.70
16643;DHT22;8435;52.184;5.406;2023-03-01T00:32:49;2.80;95.80
16643;DHT22;8435;52.184;5.406;2023-03-01T00:35:16;2.80;95.80
16643;DHT22;8435;52.184;5.406;2023-03-01T00:37:44;2.80;95.90
16643;DHT22;8435;52.184;5.406;2023-03-01T00:40:12;2.70;95.90
16643;DHT22;8435;52.184;5.406;2023-03-01T00:42:41;2.70;95.90
16643;DHT22;8435;52.184;5.406;2023-03-01T00:45:09;2.70;95.90
16643;DHT22;8435;52.184;5.406;2023-03-01T00:47:36;2.70;96.00
16643;DHT22;8435;52.184;5.406;2023-03-01T00:52:37;2.70;96.10
16643;DHT22;8435;52.184;5.406;2023-03-01T00:55:06;2.70;96.20
16643;DHT22;8435;52.184;5.406;2023-03-01T00:57:33;2.70;96.50
16643;DHT22;8435;52.184;5.406;2023-03-01T01:00:00;2.70;96.30
16643;DHT22;8435;52.184;5.406;2023-03-01T01:02:28;2.70;96.30
16643;DHT22;8435;52.184;5.406;2023-03-01T01:04:55;2.60;96.30
16643;DHT22;8435;52.184;5.406;2023-03-01T01:07:22;2.60;96.30
16643;DHT22;8435;52.184;5.406;2023-03-01T01:09:48;2.60;96.40
16643;DHT22;8435;52.184;5.406;2023-03-01T01:12:17;2.60;96.40
16643;DHT22;8435;52.184;5.406;2023-03-01T01:14:43;2.60;96.50
16643;DHT22;8435;52.184;5.406;2023-03-01T01:17:12;2.60;96.50
16643;DHT22;8435;52.184;5.406;2023-03-01T01:19:38;2.60;96.50
16643;DHT22;8435;52.184;5.406;2023-03-01T01:22:05;2.50;96.50
16643;DHT22;8435;52.184;5.406;2023-03-01T01:24:32;2.50;96.60
16643;DHT22;8435;52.184;5.406;2023-03-01T01:26:59;2.50;96.60
16643;DHT22;8435;52.184;5.406;2023-03-01T01:29:31;2.50;96.70
16643;DHT22;8435;52.184;5.406;2023-03-01T01:31:58;2.50;96.70
16643;DHT22;8435;52.184;5.406;2023-03-01T01:34:25;2.50;96.70
16643;DHT22;8435;52.184;5.406;2023-03-01T01:36:53;2.50;96.70
16643;DHT22;8435;52.184;5.406;2023-03-01T01:39:20;2.40;96.80
16643;DHT22;8435;52.184;5.406;2023-03-01T01:41:47;2.40;96.80
16643;DHT22;8435;52.184;5.406;2023-03-01T01:44:17;2.40;96.80
16643;DHT22;8435;52.184;5.406;2023-03-01T01:46:48;2.40;96.90
16643;DHT22;8435;52.184;5.406;2023-03-01T01:49:24;2.40;97.20
16643;DHT22;8435;52.184;5.406;2023-03-01T01:52:02;2.40;97.00
16643;DHT22;8435;52.184;5.406;2023-03-01T01:54:40;2.40;97.10
16643;DHT22;8435;52.184;5.406;2023-03-01T01:57:13;2.40;97.00
16643;DHT22;8435;52.184;5.406;2023-03-01T01:59:43;2.30;97.00
16643;DHT22;8435;52.184;5.406;2023-03-01T02:02:13;2.30;97.10
16643;DHT22;8435;52.184;5.406;2023-03-01T02:04:40;2.30;97.40
16643;DHT22;8435;52.184;5.406;2023-03-01T02:07:13;2.30;97.10
16643;DHT22;8435;52.184;5.406;2023-03-01T02:09:45;2.30;97.20
16643;DHT22;8435;52.184;5.406;2023-03-01T02:12:13;2.30;97.20
16643;DHT22;8435;52.184;5.406;2023-03-01T02:14:42;2.30;97.20
16643;DHT22;8435;52.184;5.406;2023-03-01T02:17:15;2.30;97.30
16643;DHT22;8435;52.184;5.406;2023-03-01T02:19:51;2.30;97.30
16643;DHT22;8435;52.184;5.406;2023-03-01T02:22:22;2.20;97.40
16643;DHT22;8435;52.184;5.406;2023-03-01T02:24:57;2.20;97.30
16643;DHT22;8435;52.184;5.406;2023-03-01T02:27:35;2.20;97.40
16643;DHT22;8435;52.184;5.406;2023-03-01T02:30:05;2.20;97.50
16643;DHT22;8435;52.184;5.406;2023-03-01T02:32:33;2.20;97.40
16643;DHT22;8435;52.184;5.406;2023-03-01T02:35:00;2.10;97.40
16643;DHT22;8435;52.184;5.406;2023-03-01T02:37:27;2.10;97.40
16643;DHT22;8435;52.184;5.406;2023-03-01T02:39:58;2.10;97.50
16643;DHT22;8435;52.184;5.406;2023-03-01T02:42:28;2.10;97.60
16643;DHT22;8435;52.184;5.406;2023-03-01T02:44:56;2.10;97.60
16643;DHT22;8435;52.184;5.406;2023-03-01T02:47:25;2.00;97.60
16643;DHT22;8435;52.184;5.406;2023-03-01T02:49:54;2.00;97.60
16643;DHT22;8435;52.184;5.406;2023-03-01T02:52:41;2.00;97.70
16643;DHT22;8435;52.184;5.406;2023-03-01T02:55:11;2.00;97.70
16643;DHT22;8435;52.184;5.406;2023-03-01T02:57:43;2.00;97.60
16643;DHT22;8435;52.184;5.406;2023-03-01T03:00:12;2.00;97.70
16643;DHT22;8435;52.184;5.406;2023-03-01T03:02:46;2.00;97.70
16643;DHT22;8435;52.184;5.406;2023-03-01T03:05:16;1.90;97.70
16643;DHT22;8435;52.184;5.406;2023-03-01T03:07:45;1.90;97.70
16643;DHT22;8435;52.184;5.406;2023-03-01T03:10:15;1.90;97.80
16643;DHT22;8435;52.184;5.406;2023-03-01T03:12:42;1.90;97.80
16643;DHT22;8435;52.184;5.406;2023-03-01T03:15:10;1.90;97.80
16643;DHT22;8435;52.184;5.406;2023-03-01T03:17:39;1.90;97.90
16643;DHT22;8435;52.184;5.406;2023-03-01T03:20:10;1.80;97.90
16643;DHT22;8435;52.184;5.406;2023-03-01T03:22:37;1.90;98.00
16643;DHT22;8435;52.184;5.406;2023-03-01T03:25:05;1.90;98.00
16643;DHT22;8435;52.184;5.406;2023-03-01T03:27:35;1.80;98.00
16643;DHT22;8435;52.184;5.406;2023-03-01T03:30:04;1.80;98.00
16643;DHT22;8435;52.184;5.406;2023-03-01T03:32:34;1.80;98.10
16643;DHT22;8435;52.184;5.406;2023-03-01T03:35:01;1.80;98.10
16643;DHT22;8435;52.184;5.406;2023-03-01T03:37:36;1.80;98.10
16643;DHT22;8435;52.184;5.406;2023-03-01T03:40:20;1.80;98.10
16643;DHT22;8435;52.184;5.406;2023-03-01T03:42:50;1.80;98.10
16643;DHT22;8435;52.184;5.406;2023-03-01T03:45:17;1.80;98.10
16643;DHT22;8435;52.184;5.406;2023-03-01T03:47:44;1.70;98.10
16643;DHT22;8435;52.184;5.406;2023-03-01T03:50:13;1.70;98.10
16643;DHT22;8435;52.184;5.406;2023-03-01T03:52:42;1.70;98.10
16643;DHT22;8435;52.184;5.406;2023-03-01T03:55:11;1.70;98.10
16643;DHT22;8435;52.184;5.406;2023-03-01T03:57:39;1.70;98.10
16643;DHT22;8435;52.184;5.406;2023-03-01T04:00:09;1.60;98.10
16643;DHT22;8435;52.184;5.406;2023-03-01T04:02:38;1.60;98.10
16643;DHT22;8435;52.184;5.406;2023-03-01T04:05:06;1.60;98.10
16643;DHT22;8435;52.184;5.406;2023-03-01T04:07:33;1.60;98.20
16643;DHT22;8435;52.184;5.406;2023-03-01T04:10:01;1.50;98.20
16643;DHT22;8435;52.184;5.406;2023-03-01T04:12:28;1.60;98.20
16643;DHT22;8435;52.184;5.406;2023-03-01T04:14:55;1.50;98.20
16643;DHT22;8435;52.184;5.406;2023-03-01T04:17:22;1.50;98.20
16643;DHT22;8435;52.184;5.406;2023-03-01T04:19:51;1.50;98.20
16643;DHT22;8435;52.184;5.406;2023-03-01T04:22:19;1.50;98.50
16643;DHT22;8435;52.184;5.406;2023-03-01T04:24:45;1.50;98.20
16643;DHT22;8435;52.184;5.406;2023-03-01T04:27:13;1.40;98.20
16643;DHT22;8435;52.184;5.406;2023-03-01T04:29:40;1.40;98.20
16643;DHT22;8435;52.184;5.406;2023-03-01T04:32:07;1.40;98.20
16643;DHT22;8435;52.184;5.406;2023-03-01T04:34:34;1.40;98.20
16643;DHT22;8435;52.184;5.406;2023-03-01T04:37:00;1.30;98.20
16643;DHT22;8435;52.184;5.406;2023-03-01T04:39:27;1.40;98.30
16643;DHT22;8435;52.184;5.406;2023-03-01T04:41:54;1.30;98.30
16643;DHT22;8435;52.184;5.406;2023-03-01T04:44:22;1.30;98.30
16643;DHT22;8435;52.184;5.406;2023-03-01T04:46:49;1.30;98.30
16643;DHT22;8435;52.184;5.406;2023-03-01T04:49:16;1.30;98.30
16643;DHT22;8435;52.184;5.406;2023-03-01T04:51:43;1.30;98.30
16643;DHT22;8435;52.184;5.406;2023-03-01T04:54:09;1.30;98.30
16643;DHT22;8435;52.184;5.406;2023-03-01T04:56:36;1.30;98.30
16643;DHT22;8435;52.184;5.406;2023-03-01T04:59:05;1.20;98.30
16643;DHT22;8435;52.184;5.406;2023-03-01T05:01:35;1.20;98.30
16643;DHT22;8435;52.184;5.406;2023-03-01T05:04:02;1.20;98.30
16643;DHT22;8435;52.184;5.406;2023-03-01T05:06:31;1.20;98.30
16643;DHT22;8435;52.184;5.406;2023-03-01T05:08:58;1.20;98.40
16643;DHT22;8435;52.184;5.406;2023-03-01T05:11:25;1.20;98.40
16643;DHT22;8435;52.184;5.406;2023-03-01T05:13:53;1.20;98.40
16643;DHT22;8435;52.184;5.406;2023-03-01T05:16:20;1.10;98.40
16643;DHT22;8435;52.184;5.406;2023-03-01T05:18:51;1.10;98.40
16643;DHT22;8435;52.184;5.406;2023-03-01T05:21:21;1.10;98.40
16643;DHT22;8435;52.184;5.406;2023-03-01T05:23:48;1.10;98.40
16643;DHT22;8435;52.184;5.406;2023-03-01T05:26:16;1.10;98.50
16643;DHT22;8435;52.184;5.406;2023-03-01T05:28:44;1.10;98.50
16643;DHT22;8435;52.184;5.406;2023-03-01T05:31:10;1.10;98.50
16643;DHT22;8435;52.184;5.406;2023-03-01T05:33:38;1.10;98.50
16643;DHT22;8435;52.184;5.406;2023-03-01T05:36:08;1.00;98.50
16643;DHT22;8435;52.184;5.406;2023-03-01T05:38:35;1.00;98.50
16643;DHT22;8435;52.184;5.406;2023-03-01T05:41:02;1.00;98.50
16643;DHT22;8435;52.184;5.406;2023-03-01T05:43:30;1.00;98.50
16643;DHT22;8435;52.184;5.406;2023-03-01T05:46:02;1.00;98.50
16643;DHT22;8435;52.184;5.406;2023-03-01T05:48:29;1.00;98.60
16643;DHT22;8435;52.184;5.406;2023-03-01T05:50:59;1.00;98.50
16643;DHT22;8435;52.184;5.406;2023-03-01T05:53:28;1.00;98.60
16643;DHT22;8435;52.184;5.406;2023-03-01T05:55:55;1.00;98.60
16643;DHT22;8435;52.184;5.406;2023-03-01T05:58:22;1.00;98.60
16643;DHT22;8435;52.184;5.406;2023-03-01T06:00:50;1.00;98.60
16643;DHT22;8435;52.184;5.406;2023-03-01T06:03:17;0.90;98.60
16643;DHT22;8435;52.184;5.406;2023-03-01T06:05:44;0.90;98.60
16643;DHT22;8435;52.184;5.406;2023-03-01T06:08:12;0.90;98.70
16643;DHT22;8435;52.184;5.406;2023-03-01T06:10:40;0.90;98.70
16643;DHT22;8435;52.184;5.406;2023-03-01T06:13:07;0.90;98.70
16643;DHT22;8435;52.184;5.406;2023-03-01T06:15:34;0.90;98.80
16643;DHT22;8435;52.184;5.406;2023-03-01T06:18:01;0.90;98.80
16643;DHT22;8435;52.184;5.406;2023-03-01T06:20:28;0.90;98.80
16643;DHT22;8435;52.184;5.406;2023-03-01T06:22:55;0.90;98.80
16643;DHT22;8435;52.184;5.406;2023-03-01T06:25:24;0.90;98.80
16643;DHT22;8435;52.184;5.406;2023-03-01T06:27:53;0.90;98.80
16643;DHT22;8435;52.184;5.406;2023-03-01T06:30:22;0.90;98.80
16643;DHT22;8435;52.184;5.406;2023-03-01T06:32:49;0.90;98.90
16643;DHT22;8435;52.184;5.406;2023-03-01T06:35:17;0.90;98.90
16643;DHT22;8435;52.184;5.406;2023-03-01T06:37:45;0.90;98.90
16643;DHT22;8435;52.184;5.406;2023-03-01T06:40:13;0.90;98.90
16643;DHT22;8435;52.184;5.406;2023-03-01T06:42:41;0.90;98.90
16643;DHT22;8435;52.184;5.406;2023-03-01T06:45:10;0.90;98.90
16643;DHT22;8435;52.184;5.406;2023-03-01T06:47:37;0.90;99.00
16643;DHT22;8435;52.184;5.406;2023-03-01T06:50:08;0.90;99.00
16643;DHT22;8435;52.184;5.406;2023-03-01T06:52:35;0.90;99.10
16643;DHT22;8435;52.184;5.406;2023-03-01T06:55:03;1.00;99.10
16643;DHT22;8435;52.184;5.406;2023-03-01T06:57:30;1.00;99.10
16643;DHT22;8435;52.184;5.406;2023-03-01T06:59:56;1.00;99.10
16643;DHT22;8435;52.184;5.406;2023-03-01T07:02:25;1.00;99.10
16643;DHT22;8435;52.184;5.406;2023-03-01T07:04:52;1.10;99.20
16643;DHT22;8435;52.184;5.406;2023-03-01T07:07:18;1.10;99.20
16643;DHT22;8435;52.184;5.406;2023-03-01T07:09:45;1.20;99.20
16643;DHT22;8435;52.184;5.406;2023-03-01T07:12:12;1.20;99.20
16643;DHT22;8435;52.184;5.406;2023-03-01T07:14:39;1.20;99.20
16643;DHT22;8435;52.184;5.406;2023-03-01T07:17:06;1.30;99.30
16643;DHT22;8435;52.184;5.406;2023-03-01T07:19:34;1.30;99.30
16643;DHT22;8435;52.184;5.406;2023-03-01T07:22:02;1.40;99.40
16643;DHT22;8435;52.184;5.406;2023-03-01T07:24:29;1.40;99.40
16643;DHT22;8435;52.184;5.406;2023-03-01T07:26:58;1.50;99.50
16643;DHT22;8435;52.184;5.406;2023-03-01T07:29:25;1.60;99.70
16643;DHT22;8435;52.184;5.406;2023-03-01T07:31:51;1.70;99.80
16643;DHT22;8435;52.184;5.406;2023-03-01T07:34:18;1.80;99.90
16643;DHT22;8435;52.184;5.406;2023-03-01T07:36:46;2.00;99.90
16643;DHT22;8435;52.184;5.406;2023-03-01T07:39:13;2.10;99.90
16643;DHT22;8435;52.184;5.406;2023-03-01T07:41:42;2.20;99.80
16643;DHT22;8435;52.184;5.406;2023-03-01T07:44:09;2.40;99.80
16643;DHT22;8435;52.184;5.406;2023-03-01T07:46:36;2.40;99.70
16643;DHT22;8435;52.184;5.406;2023-03-01T07:49:03;2.50;99.70
16643;DHT22;8435;52.184;5.406;2023-03-01T07:51:30;2.70;99.80
16643;DHT22;8435;52.184;5.406;2023-03-01T07:53:58;2.90;99.90
16643;DHT22;8435;52.184;5.406;2023-03-01T07:56:25;3.10;99.90
16643;DHT22;8435;52.184;5.406;2023-03-01T07:58:51;3.40;99.90
16643;DHT22;8435;52.184;5.406;2023-03-01T08:01:21;3.60;99.90
16643;DHT22;8435;52.184;5.406;2023-03-01T08:03:49;3.90;99.70
16643;DHT22;8435;52.184;5.406;2023-03-01T08:06:17;4.30;99.60
16643;DHT22;8435;52.184;5.406;2023-03-01T08:08:44;4.60;99.40
16643;DHT22;8435;52.184;5.406;2023-03-01T08:11:14;4.90;99.20
16643;DHT22;8435;52.184;5.406;2023-03-01T08:13:41;5.30;99.10
16643;DHT22;8435;52.184;5.406;2023-03-01T08:16:10;5.70;98.90
16643;DHT22;8435;52.184;5.406;2023-03-01T08:18:38;6.10;98.60
16643;DHT22;8435;52.184;5.406;2023-03-01T08:21:06;6.50;98.40
16643;DHT22;8435;52.184;5.406;2023-03-01T08:23:34;6.90;97.80
16643;DHT22;8435;52.184;5.406;2023-03-01T08:26:05;7.20;97.30
16643;DHT22;8435;52.184;5.406;2023-03-01T08:28:34;7.50;96.60
16643;DHT22;8435;52.184;5.406;2023-03-01T08:31:01;7.80;96.50
16643;DHT22;8435;52.184;5.406;2023-03-01T08:33:28;8.10;96.20
16643;DHT22;8435;52.184;5.406;2023-03-01T08:36:02;8.40;95.70
16643;DHT22;8435;52.184;5.406;2023-03-01T08:38:29;8.60;94.90
16643;DHT22;8435;52.184;5.406;2023-03-01T08:40:59;8.90;95.20
16643;DHT22;8435;52.184;5.406;2023-03-01T08:43:26;9.10;94.70
16643;DHT22;8435;52.184;5.406;2023-03-01T08:45:54;9.20;94.50
16643;DHT22;8435;52.184;5.406;2023-03-01T08:48:21;9.40;93.50
16643;DHT22;8435;52.184;5.406;2023-03-01T08:50:48;9.60;93.50
16643;DHT22;8435;52.184;5.406;2023-03-01T08:53:15;9.70;93.10
16643;DHT22;8435;52.184;5.406;2023-03-01T08:55:44;9.80;92.80
16643;DHT22;8435;52.184;5.406;2023-03-01T08:58:11;9.90;92.30
16643;DHT22;8435;52.184;5.406;2023-03-01T09:00:38;10.00;92.00
16643;DHT22;8435;52.184;5.406;2023-03-01T09:03:06;10.20;91.60
16643;DHT22;8435;52.184;5.406;2023-03-01T09:05:34;10.20;91.20
16643;DHT22;8435;52.184;5.406;2023-03-01T09:08:02;10.20;91.10
16643;DHT22;8435;52.184;5.406;2023-03-01T09:10:29;10.30;91.00
16643;DHT22;8435;52.184;5.406;2023-03-01T09:12:55;10.40;90.90
16643;DHT22;8435;52.184;5.406;2023-03-01T09:15:22;10.50;90.50
16643;DHT22;8435;52.184;5.406;2023-03-01T09:17:49;10.60;90.40
16643;DHT22;8435;52.184;5.406;2023-03-01T09:20:18;10.60;88.50
16643;DHT22;8435;52.184;5.406;2023-03-01T09:22:45;10.70;87.90
16643;DHT22;8435;52.184;5.406;2023-03-01T09:25:12;10.70;85.90
16643;DHT22;8435;52.184;5.406;2023-03-01T09:27:39;10.60;84.00
16643;DHT22;8435;52.184;5.406;2023-03-01T09:30:07;10.50;82.50
16643;DHT22;8435;52.184;5.406;2023-03-01T09:32:34;10.30;83.10
16643;DHT22;8435;52.184;5.406;2023-03-01T09:35:04;10.00;81.80
16643;DHT22;8435;52.184;5.406;2023-03-01T09:37:33;9.80;84.10
16643;DHT22;8435;52.184;5.406;2023-03-01T09:40:00;9.50;85.30
16643;DHT22;8435;52.184;5.406;2023-03-01T09:42:29;9.30;86.70
16643;DHT22;8435;52.184;5.406;2023-03-01T09:44:59;9.10;86.80
16643;DHT22;8435;52.184;5.406;2023-03-01T09:47:30;9.00;87.10
16643;DHT22;8435;52.184;5.406;2023-03-01T09:50:02;8.80;87.00
16643;DHT22;8435;52.184;5.406;2023-03-01T09:52:36;8.70;87.70
16643;DHT22;8435;52.184;5.406;2023-03-01T09:55:11;8.60;88.00
16643;DHT22;8435;52.184;5.406;2023-03-01T09:57:45;8.50;88.20
16643;DHT22;8435;52.184;5.406;2023-03-01T10:00:23;8.30;88.10
16643;DHT22;8435;52.184;5.406;2023-03-01T10:03:00;8.30;87.60
16643;DHT22;8435;52.184;5.406;2023-03-01T10:05:36;8.20;88.00
16643;DHT22;8435;52.184;5.406;2023-03-01T10:08:27;8.20;88.40
16643;DHT22;8435;52.184;5.406;2023-03-01T10:10:56;8.10;88.00
16643;DHT22;8435;52.184;5.406;2023-03-01T10:13:28;8.10;88.60
16643;DHT22;8435;52.184;5.406;2023-03-01T10:15:57;8.00;89.20
16643;DHT22;8435;52.184;5.406;2023-03-01T10:18:29;8.00;89.10
16643;DHT22;8435;52.184;5.406;2023-03-01T10:21:00;8.00;89.50
16643;DHT22;8435;52.184;5.406;2023-03-01T10:23:37;8.00;90.00
16643;DHT22;8435;52.184;5.406;2023-03-01T10:26:19;8.00;88.80
16643;DHT22;8435;52.184;5.406;2023-03-01T10:28:57;8.00;88.70
16643;DHT22;8435;52.184;5.406;2023-03-01T10:31:27;8.00;88.30
16643;DHT22;8435;52.184;5.406;2023-03-01T10:34:02;8.00;87.40
16643;DHT22;8435;52.184;5.406;2023-03-01T10:36:32;8.00;85.30
16643;DHT22;8435;52.184;5.406;2023-03-01T10:39:13;8.00;85.30
16643;DHT22;8435;52.184;5.406;2023-03-01T10:41:53;7.90;85.50
16643;DHT22;8435;52.184;5.406;2023-03-01T10:44:43;7.90;86.50
16643;DHT22;8435;52.184;5.406;2023-03-01T10:47:18;8.00;86.80
16643;DHT22;8435;52.184;5.406;2023-03-01T10:49:58;8.00;86.60
16643;DHT22;8435;52.184;5.406;2023-03-01T10:52:29;8.00;86.20
16643;DHT22;8435;52.184;5.406;2023-03-01T10:55:02;8.10;86.40
16643;DHT22;8435;52.184;5.406;2023-03-01T10:57:33;8.00;84.40
16643;DHT22;8435;52.184;5.406;2023-03-01T11:00:24;8.10;84.40
16643;DHT22;8435;52.184;5.406;2023-03-01T11:03:03;8.10;83.50
16643;DHT22;8435;52.184;5.406;2023-03-01T11:05:35;8.20;83.20
16643;DHT22;8435;52.184;5.406;2023-03-01T11:08:03;8.20;84.50
16643;DHT22;8435;52.184;5.406;2023-03-01T11:10:33;8.20;83.20
16643;DHT22;8435;52.184;5.406;2023-03-01T11:13:08;8.20;84.10
16643;DHT22;8435;52.184;5.406;2023-03-01T11:15:36;8.30;83.40
16643;DHT22;8435;52.184;5.406;2023-03-01T11:18:03;8.30;84.50
16643;DHT22;8435;52.184;5.406;2023-03-01T11:20:34;8.40;84.40
16643;DHT22;8435;52.184;5.406;2023-03-01T11:23:05;8.40;82.60
16643;DHT22;8435;52.184;5.406;2023-03-01T11:25:38;8.50;82.50
16643;DHT22;8435;52.184;5.406;2023-03-01T11:28:07;8.50;79.50
16643;DHT22;8435;52.184;5.406;2023-03-01T11:30:41;8.50;80.20
16643;DHT22;8435;52.184;5.406;2023-03-01T11:33:16;8.50;80.10
16643;DHT22;8435;52.184;5.406;2023-03-01T11:35:49;8.50;80.10
16643;DHT22;8435;52.184;5.406;2023-03-01T11:38:22;8.60;80.70
16643;DHT22;8435;52.184;5.406;2023-03-01T11:40:54;8.60;79.60
16643;DHT22;8435;52.184;5.406;2023-03-01T11:43:32;8.60;80.60
16643;DHT22;8435;52.184;5.406;2023-03-01T11:46:40;8.60;79.00
16643;DHT22;8435;52.184;5.406;2023-03-01T11:49:30;8.60;76.90
16643;DHT22;8435;52.184;5.406;2023-03-01T11:52:08;8.70;77.90
16643;DHT22;8435;52.184;5.406;2023-03-01T11:54:49;8.70;76.40
16643;DHT22;8435;52.184;5.406;2023-03-01T11:57:34;8.70;76.50
16643;DHT22;8435;52.184;5.406;2023-03-01T12:00:12;8.70;75.90
16643;DHT22;8435;52.184;5.406;2023-03-01T12:03:03;8.70;76.20
16643;DHT22;8435;52.184;5.406;2023-03-01T12:09:02;8.70;74.30
16643;DHT22;8435;52.184;5.406;2023-03-01T12:11:41;8.80;74.60
16643;DHT22;8435;52.184;5.406;2023-03-01T12:14:28;8.80;75.30
16643;DHT22;8435;52.184;5.406;2023-03-01T12:17:22;8.80;72.80
16643;DHT22;8435;52.184;5.406;2023-03-01T12:20:12;8.90;74.70
16643;DHT22;8435;52.184;5.406;2023-03-01T12:22:58;8.90;74.10
16643;DHT22;8435;52.184;5.406;2023-03-01T12:25:33;8.90;75.50
16643;DHT22;8435;52.184;5.406;2023-03-01T12:28:20;8.90;76.50
16643;DHT22;8435;52.184;5.406;2023-03-01T12:31:00;9.00;76.20
16643;DHT22;8435;52.184;5.406;2023-03-01T12:33:45;9.00;77.00
16643;DHT22;8435;52.184;5.406;2023-03-01T12:36:26;9.00;75.70
16643;DHT22;8435;52.184;5.406;2023-03-01T12:39:07;9.10;77.30
16643;DHT22;8435;52.184;5.406;2023-03-01T12:41:46;9.10;77.40
16643;DHT22;8435;52.184;5.406;2023-03-01T12:44:29;9.10;75.20
16643;DHT22;8435;52.184;5.406;2023-03-01T12:47:07;9.20;74.20
16643;DHT22;8435;52.184;5.406;2023-03-01T12:49:41;9.20;72.10
16643;DHT22;8435;52.184;5.406;2023-03-01T12:52:16;9.30;72.70
16643;DHT22;8435;52.184;5.406;2023-03-01T12:54:46;9.30;73.80
16643;DHT22;8435;52.184;5.406;2023-03-01T12:57:18;9.30;75.30
16643;DHT22;8435;52.184;5.406;2023-03-01T12:59:56;9.30;74.20
16643;DHT22;8435;52.184;5.406;2023-03-01T13:02:35;9.30;72.20
16643;DHT22;8435;52.184;5.406;2023-03-01T13:05:21;9.30;71.40
16643;DHT22;8435;52.184;5.406;2023-03-01T13:07:55;9.30;72.20
16643;DHT22;8435;52.184;5.406;2023-03-01T13:10:30;9.40;70.90
16643;DHT22;8435;52.184;5.406;2023-03-01T13:13:12;9.40;71.40
16643;DHT22;8435;52.184;5.406;2023-03-01T13:15:40;9.40;72.50
16643;DHT22;8435;52.184;5.406;2023-03-01T13:18:32;9.40;72.40
16643;DHT22;8435;52.184;5.406;2023-03-01T13:21:02;9.40;70.30
16643;DHT22;8435;52.184;5.406;2023-03-01T13:23:33;9.40;70.00
16643;DHT22;8435;52.184;5.406;2023-03-01T13:26:12;9.40;71.30
16643;DHT22;8435;52.184;5.406;2023-03-01T13:28:51;9.40;72.50
16643;DHT22;8435;52.184;5.406;2023-03-01T13:34:43;9.50;72.90
16643;DHT22;8435;52.184;5.406;2023-03-01T13:37:25;9.50;70.00
16643;DHT22;8435;52.184;5.406;2023-03-01T13:39:55;9.50;72.60
16643;DHT22;8435;52.184;5.406;2023-03-01T13:42:45;9.60;72.70
16643;DHT22;8435;52.184;5.406;2023-03-01T13:45:24;9.50;72.00
16643;DHT22;8435;52.184;5.406;2023-03-01T13:47:57;9.50;70.60
16643;DHT22;8435;52.184;5.406;2023-03-01T13:50:32;9.60;71.40
16643;DHT22;8435;52.184;5.406;2023-03-01T13:53:03;9.60;71.30
16643;DHT22;8435;52.184;5.406;2023-03-01T13:55:37;9.60;72.30
16643;DHT22;8435;52.184;5.406;2023-03-01T13:58:20;9.60;72.10
16643;DHT22;8435;52.184;5.406;2023-03-01T14:00:54;9.60;71.50
16643;DHT22;8435;52.184;5.406;2023-03-01T14:03:21;9.60;69.90
16643;DHT22;8435;52.184;5.406;2023-03-01T14:06:02;9.70;72.80
16643;DHT22;8435;52.184;5.406;2023-03-01T14:08:33;9.60;72.90
16643;DHT22;8435;52.184;5.406;2023-03-01T14:11:30;9.60;70.90
16643;DHT22;8435;52.184;5.406;2023-03-01T14:14:14;9.60;70.60
16643;DHT22;8435;52.184;5.406;2023-03-01T14:16:54;9.70;70.60
16643;DHT22;8435;52.184;5.406;2023-03-01T14:19:26;9.70;70.10
16643;DHT22;8435;52.184;5.406;2023-03-01T14:22:04;9.70;70.40
16643;DHT22;8435;52.184;5.406;2023-03-01T14:24:34;9.70;70.80
16643;DHT22;8435;52.184;5.406;2023-03-01T14:27:03;9.70;70.70
16643;DHT22;8435;52.184;5.406;2023-03-01T14:29:36;9.70;71.50
16643;DHT22;8435;52.184;5.406;2023-03-01T14:32:11;9.80;70.20
16643;DHT22;8435;52.184;5.406;2023-03-01T14:34:43;9.80;70.20
16643;DHT22;8435;52.184;5.406;2023-03-01T14:37:19;9.80;69.10
16643;DHT22;8435;52.184;5.406;2023-03-01T14:39:46;9.80;69.00
16643;DHT22;8435;52.184;5.406;2023-03-01T14:42:13;9.80;69.50
16643;DHT22;8435;52.184;5.406;2023-03-01T14:44:42;9.80;68.90
16643;DHT22;8435;52.184;5.406;2023-03-01T14:47:12;9.80;70.00
16643;DHT22;8435;52.184;5.406;2023-03-01T14:49:41;9.80;69.30
16643;DHT22;8435;52.184;5.406;2023-03-01T14:52:21;9.80;70.80
16643;DHT22;8435;52.184;5.406;2023-03-01T14:54:51;9.80;70.40
16643;DHT22;8435;52.184;5.406;2023-03-01T14:57:21;9.80;70.70
16643;DHT22;8435;52.184;5.406;2023-03-01T14:59:49;9.90;70.80
16643;DHT22;8435;52.184;5.406;2023-03-01T15:02:19;9.90;70.30
16643;DHT22;8435;52.184;5.406;2023-03-01T15:04:50;9.90;70.20
16643;DHT22;8435;52.184;5.406;2023-03-01T15:07:19;9.80;68.60
16643;DHT22;8435;52.184;5.406;2023-03-01T15:09:46;9.90;69.30
16643;DHT22;8435;52.184;5.406;2023-03-01T15:12:34;9.90;70.00
16643;DHT22;8435;52.184;5.406;2023-03-01T15:15:01;9.90;68.90
16643;DHT22;8435;52.184;5.406;2023-03-01T15:17:51;9.90;69.50
16643;DHT22;8435;52.184;5.406;2023-03-01T15:20:22;9.90;69.90
16643;DHT22;8435;52.184;5.406;2023-03-01T15:22:53;9.90;69.90
16643;DHT22;8435;52.184;5.406;2023-03-01T15:25:21;9.90;69.30
16643;DHT22;8435;52.184;5.406;2023-03-01T15:27:51;9.80;68.80
16643;DHT22;8435;52.184;5.406;2023-03-01T15:30:21;9.80;70.30
16643;DHT22;8435;52.184;5.406;2023-03-01T15:33:19;9.90;69.90
16643;DHT22;8435;52.184;5.406;2023-03-01T15:35:48;9.80;69.00
16643;DHT22;8435;52.184;5.406;2023-03-01T15:38:29;9.80;69.70
16643;DHT22;8435;52.184;5.406;2023-03-01T15:40:57;9.80;68.50
16643;DHT22;8435;52.184;5.406;2023-03-01T15:43:43;9.90;69.70
16643;DHT22;8435;52.184;5.406;2023-03-01T15:46:28;9.80;69.30
16643;DHT22;8435;52.184;5.406;2023-03-01T15:48:59;9.80;69.10
16643;DHT22;8435;52.184;5.406;2023-03-01T15:51:33;9.80;69.90
16643;DHT22;8435;52.184;5.406;2023-03-01T15:54:04;9.80;69.00
16643;DHT22;8435;52.184;5.406;2023-03-01T15:56:34;9.80;68.80
16643;DHT22;8435;52.184;5.406;2023-03-01T15:59:02;9.80;69.30
16643;DHT22;8435;52.184;5.406;2023-03-01T16:01:29;9.70;70.10
16643;DHT22;8435;52.184;5.406;2023-03-01T16:03:58;9.70;69.50
16643;DHT22;8435;52.184;5.406;2023-03-01T16:06:25;9.70;70.10
16643;DHT22;8435;52.184;5.406;2023-03-01T16:08:52;9.70;70.40
16643;DHT22;8435;52.184;5.406;2023-03-01T16:11:20;9.70;69.50
16643;DHT22;8435;52.184;5.406;2023-03-01T16:13:48;9.70;68.50
16643;DHT22;8435;52.184;5.406;2023-03-01T16:16:16;9.60;68.80
16643;DHT22;8435;52.184;5.406;2023-03-01T16:18:44;9.70;69.70
16643;DHT22;8435;52.184;5.406;2023-03-01T16:21:16;9.60;70.00
16643;DHT22;8435;52.184;5.406;2023-03-01T16:23:45;9.60;69.50
16643;DHT22;8435;52.184;5.406;2023-03-01T16:26:12;9.60;70.50
16643;DHT22;8435;52.184;5.406;2023-03-01T16:28:41;9.60;69.80
16643;DHT22;8435;52.184;5.406;2023-03-01T16:31:12;9.50;70.10
16643;DHT22;8435;52.184;5.406;2023-03-01T16:33:45;9.50;69.90
16643;DHT22;8435;52.184;5.406;2023-03-01T16:36:19;9.50;70.60